createdAt,value
2023-10-07T00:01:26.910Z,70.70
2023-10-07T00:03:54.702Z,71.07
2023-10-07T00:06:29.052Z,70.88
2023-10-07T00:08:56.122Z,71.24
2023-10-07T00:11:23.536Z,71.08
2023-10-07T00:13:55.363Z,71.03
2023-10-07T00:16:24.889Z,71.00
2023-10-07T00:18:51.831Z,71.22
2023-10-07T00:21:25.021Z,71.28
2023-10-07T00:23:53.926Z,71.62
2023-10-07T00:26:20.632Z,71.64
2023-10-07T00:28:55.951Z,71.79
2023-10-07T00:31:29.030Z,72.11
2023-10-07T00:34:15.622Z,72.14
2023-10-07T00:36:42.277Z,72.62
2023-10-07T00:39:10.333Z,72.53
2023-10-07T00:41:48.101Z,72.87
2023-10-07T00:44:20.035Z,72.95
2023-10-07T00:46:50.795Z,73.00
2023-10-07T00:49:24.014Z,72.90
2023-10-07T00:51:53.515Z,72.95
2023-10-07T00:54:30.206Z,73.06
2023-10-07T00:57:12.321Z,73.11
2023-10-07T00:59:44.670Z,73.21
2023-10-07T01:02:18.609Z,73.17
2023-10-07T01:04:46.568Z,73.20
2023-10-07T01:07:19.032Z,73.46
2023-10-07T01:10:12.314Z,73.19
2023-10-07T01:12:52.523Z,73.35
2023-10-07T01:15:23.828Z,73.54
2023-10-07T01:17:58.030Z,73.87
2023-10-07T01:20:45.264Z,73.86
2023-10-07T01:23:18.103Z,73.95
2023-10-07T01:25:51.611Z,74.00
2023-10-07T01:28:18.775Z,73.88
2023-10-07T01:31:20.814Z,73.52
2023-10-07T01:33:48.304Z,73.71
2023-10-07T01:36:25.279Z,73.51
2023-10-07T01:38:52.528Z,73.66
2023-10-07T01:41:20.784Z,73.40
2023-10-07T01:44:01.446Z,73.32
2023-10-07T01:46:32.938Z,73.22
2023-10-07T01:49:13.343Z,73.20
2023-10-07T01:51:45.729Z,73.19
2023-10-07T01:54:15.362Z,72.85
2023-10-07T01:56:41.991Z,73.06
2023-10-07T01:59:19.193Z,73.16
2023-10-07T02:02:07.885Z,73.49
2023-10-07T02:04:35.593Z,73.43
2023-10-07T02:07:03.193Z,73.26
2023-10-07T02:09:36.317Z,73.30
2023-10-07T02:12:09.451Z,73.05
2023-10-07T02:14:36.613Z,73.26
2023-10-07T02:17:04.059Z,73.29
2023-10-07T02:19:33.357Z,73.15
2023-10-07T02:22:01.569Z,73.28
2023-10-07T02:24:31.629Z,73.33
2023-10-07T02:27:06.827Z,73.59
2023-10-07T02:29:36.147Z,73.47
2023-10-07T02:32:15.248Z,73.51
2023-10-07T02:34:56.621Z,73.76
2023-10-07T02:37:27.133Z,73.90
2023-10-07T02:40:26.206Z,74.03
2023-10-07T02:42:55.778Z,73.78
2023-10-07T02:45:29.827Z,74.16
2023-10-07T02:48:02.010Z,75.01
2023-10-07T02:50:32.360Z,75.71
2023-10-07T02:53:02.361Z,76.12
2023-10-07T02:55:38.575Z,76.70
2023-10-07T02:58:06.604Z,76.78
2023-10-07T03:00:37.214Z,77.00
2023-10-07T03:03:11.795Z,77.31
2023-10-07T03:05:45.177Z,77.78
2023-10-07T03:08:20.697Z,77.15
2023-10-07T03:11:12.312Z,77.07
2023-10-07T03:13:52.024Z,77.04
2023-10-07T03:16:19.957Z,76.50
2023-10-07T03:18:57.748Z,76.40
2023-10-07T03:21:36.676Z,76.62
2023-10-07T03:24:08.942Z,76.33
2023-10-07T03:26:35.814Z,76.19
2023-10-07T03:29:05.879Z,76.43
2023-10-07T03:31:48.318Z,76.67
2023-10-07T03:34:15.470Z,77.22
2023-10-07T03:36:43.102Z,77.95
2023-10-07T03:39:16.922Z,78.63
2023-10-07T03:41:49.199Z,79.91
2023-10-07T03:44:18.102Z,80.28
2023-10-07T03:46:48.399Z,80.76
2023-10-07T03:49:22.373Z,81.90
2023-10-07T03:51:59.588Z,82.42
2023-10-07T03:54:30.755Z,83.53
2023-10-07T03:56:58.457Z,84.45
2023-10-07T03:59:25.125Z,84.78
2023-10-07T04:01:54.932Z,85.87
2023-10-07T04:04:25.073Z,86.75
2023-10-07T04:06:52.293Z,87.30
2023-10-07T04:09:19.493Z,87.56
2023-10-07T04:11:52.089Z,88.32
2023-10-07T04:14:28.847Z,88.40
2023-10-07T04:17:01.406Z,88.76
2023-10-07T04:19:28.469Z,89.27
2023-10-07T04:21:56.312Z,88.92
2023-10-07T04:24:29.763Z,89.54
2023-10-07T04:26:58.428Z,89.38
2023-10-07T04:29:25.704Z,89.74
2023-10-07T04:31:54.657Z,90.15
2023-10-07T04:34:25.427Z,90.08
2023-10-07T04:37:15.019Z,90.21
2023-10-07T04:39:47.142Z,90.32
2023-10-07T04:42:23.886Z,90.73
2023-10-07T04:44:53.843Z,90.59
2023-10-07T04:47:30.022Z,90.96
2023-10-07T04:50:05.693Z,90.91
2023-10-07T04:52:41.542Z,91.77
2023-10-07T04:55:14.612Z,91.44
2023-10-07T04:57:49.824Z,91.50
2023-10-07T05:00:32.661Z,92.10
2023-10-07T05:03:01.305Z,91.41
2023-10-07T05:05:34.250Z,91.27
2023-10-07T05:08:12.357Z,91.32
2023-10-07T05:10:42.948Z,90.84
2023-10-07T05:13:11.222Z,90.70
2023-10-07T05:15:42.151Z,90.86
2023-10-07T05:18:14.006Z,90.68
2023-10-07T05:20:43.085Z,90.68
2023-10-07T05:23:15.432Z,90.25
2023-10-07T05:25:49.914Z,90.04
2023-10-07T05:28:18.409Z,89.56
2023-10-07T05:30:51.719Z,88.95
2023-10-07T05:33:25.715Z,89.31
2023-10-07T05:36:14.749Z,88.83
2023-10-07T05:38:43.670Z,88.50
2023-10-07T05:41:16.621Z,87.76
2023-10-07T05:43:45.070Z,87.15
2023-10-07T05:46:12.593Z,87.40
2023-10-07T05:48:41.176Z,86.78
2023-10-07T05:51:13.184Z,86.38
2023-10-07T05:53:49.483Z,85.96
2023-10-07T05:56:16.374Z,85.58
2023-10-07T05:58:46.247Z,85.19
2023-10-07T06:01:13.220Z,84.85
2023-10-07T06:03:40.030Z,84.65
2023-10-07T06:06:07.753Z,84.18
2023-10-07T06:08:34.822Z,83.86
2023-10-07T06:11:05.992Z,83.60
2023-10-07T06:13:34.624Z,83.11
2023-10-07T06:16:05.762Z,83.11
2023-10-07T06:18:35.083Z,82.63
2023-10-07T06:21:21.543Z,82.26
2023-10-07T06:23:54.811Z,81.85
2023-10-07T06:26:21.476Z,81.40
2023-10-07T06:28:50.377Z,81.11
2023-10-07T06:31:29.283Z,80.96
2023-10-07T06:34:02.132Z,80.67
2023-10-07T06:36:32.644Z,80.31
2023-10-07T06:39:00.801Z,80.21
2023-10-07T06:41:30.596Z,79.66
2023-10-07T06:44:00.937Z,79.80
2023-10-07T06:46:30.468Z,79.79
2023-10-07T06:48:57.484Z,79.58
2023-10-07T06:51:25.091Z,79.14
2023-10-07T06:53:52.807Z,78.64
2023-10-07T06:56:22.654Z,78.33
2023-10-07T06:59:01.109Z,78.10
2023-10-07T07:01:41.663Z,77.57
2023-10-07T07:04:13.378Z,77.50
2023-10-07T07:06:44.620Z,77.01
2023-10-07T07:09:30.854Z,77.20
2023-10-07T07:12:00.076Z,77.24
2023-10-07T07:14:29.678Z,77.46
2023-10-07T07:17:19.440Z,77.39
2023-10-07T07:19:46.016Z,77.35
2023-10-07T07:22:17.191Z,77.37
2023-10-07T07:24:43.731Z,77.21
2023-10-07T07:27:10.526Z,77.16
2023-10-07T07:29:37.201Z,77.63
2023-10-07T07:32:05.928Z,77.16
2023-10-07T07:34:38.042Z,77.94
2023-10-07T07:37:05.601Z,77.81
2023-10-07T07:39:32.418Z,77.60
2023-10-07T07:42:16.458Z,77.68
2023-10-07T07:44:57.011Z,77.58
2023-10-07T07:47:24.111Z,77.71
2023-10-07T07:49:52.553Z,77.55
2023-10-07T07:52:20.810Z,77.67
2023-10-07T07:54:47.345Z,77.52
2023-10-07T07:57:16.962Z,76.92
2023-10-07T07:59:44.828Z,76.70
2023-10-07T08:02:14.742Z,76.49
2023-10-07T08:04:51.579Z,76.10
2023-10-07T08:07:25.159Z,76.15
2023-10-07T08:09:54.607Z,76.05
2023-10-07T08:12:29.769Z,75.95
2023-10-07T08:14:59.966Z,75.52
2023-10-07T08:17:28.948Z,75.71
2023-10-07T08:19:55.955Z,75.84
2023-10-07T08:22:24.923Z,76.19
2023-10-07T08:24:51.536Z,76.83
2023-10-07T08:27:43.622Z,76.92
2023-10-07T08:30:11.348Z,77.59
2023-10-07T08:32:42.719Z,77.69
2023-10-07T08:35:19.693Z,78.08
2023-10-07T08:37:47.448Z,78.61
2023-10-07T08:40:29.978Z,78.85
2023-10-07T08:43:01.354Z,79.27
2023-10-07T08:45:40.425Z,79.53
2023-10-07T08:48:18.125Z,79.97
2023-10-07T08:50:56.665Z,80.04
2023-10-07T08:53:25.135Z,80.30
2023-10-07T08:55:54.863Z,80.66
2023-10-07T08:58:27.251Z,80.77
2023-10-07T09:00:54.458Z,80.92
2023-10-07T09:03:27.643Z,81.07
2023-10-07T09:05:57.046Z,81.63
2023-10-07T09:08:26.909Z,81.71
2023-10-07T09:10:56.711Z,82.27
2023-10-07T09:13:30.797Z,82.08
2023-10-07T09:16:08.217Z,82.29
2023-10-07T09:18:42.681Z,82.68
2023-10-07T09:21:12.806Z,83.10
2023-10-07T09:23:46.649Z,82.82
2023-10-07T09:26:37.537Z,83.00
2023-10-07T09:29:17.273Z,83.03
2023-10-07T09:31:46.802Z,83.20
2023-10-07T09:34:31.893Z,82.54
2023-10-07T09:36:59.250Z,82.74
2023-10-07T09:39:45.410Z,82.56
2023-10-07T09:42:27.781Z,82.38
2023-10-07T09:45:08.469Z,82.39
2023-10-07T09:47:39.442Z,82.65
2023-10-07T09:50:20.688Z,82.91
2023-10-07T09:52:58.772Z,82.90
2023-10-07T09:55:41.888Z,82.67
2023-10-07T09:58:37.728Z,82.83
2023-10-07T10:01:30.561Z,82.91
2023-10-07T10:04:07.756Z,82.89
2023-10-07T10:06:50.678Z,82.84
2023-10-07T10:09:24.937Z,82.76
2023-10-07T10:12:13.711Z,82.89
2023-10-07T10:14:58.398Z,82.66
2023-10-07T10:17:51.259Z,82.43
2023-10-07T10:20:20.001Z,82.23
2023-10-07T10:22:54.013Z,82.15
2023-10-07T10:25:37.504Z,82.12
2023-10-07T10:28:07.760Z,82.53
2023-10-07T10:30:46.088Z,82.13
2023-10-07T10:33:21.230Z,82.20
2023-10-07T10:35:53.281Z,82.37
2023-10-07T10:38:20.673Z,82.17
2023-10-07T10:40:47.777Z,82.26
2023-10-07T10:43:25.073Z,82.48
2023-10-07T10:46:08.821Z,82.41
2023-10-07T10:48:38.276Z,82.12
2023-10-07T10:51:08.553Z,82.49
2023-10-07T10:53:42.589Z,83.04
2023-10-07T10:56:09.746Z,83.31
2023-10-07T10:58:40.659Z,100.00
2023-10-07T11:03:38.997Z,88.30
2023-10-07T11:06:07.399Z,89.17
2023-10-07T11:08:34.709Z,90.39
2023-10-07T11:11:01.463Z,91.44
2023-10-07T11:13:30.779Z,93.61
2023-10-07T11:16:11.582Z,94.01
2023-10-07T11:18:48.362Z,94.13
2023-10-07T11:21:18.751Z,94.88
2023-10-07T11:23:56.033Z,95.99
2023-10-07T11:26:26.056Z,96.82
2023-10-07T11:28:53.552Z,97.27
2023-10-07T11:31:31.871Z,97.85
2023-10-07T11:33:58.835Z,98.68
2023-10-07T11:36:25.775Z,98.19
2023-10-07T11:38:54.092Z,98.49
2023-10-07T11:41:20.834Z,99.17
2023-10-07T11:43:50.354Z,99.68
2023-10-07T11:46:17.071Z,99.60
2023-10-07T11:48:45.757Z,99.98
2023-10-07T11:51:13.233Z,99.71
2023-10-07T11:53:43.074Z,99.86
2023-10-07T11:56:13.109Z,100.00
2023-10-07T11:58:40.137Z,99.55
2023-10-07T12:01:08.950Z,98.94
2023-10-07T12:03:36.052Z,98.70
2023-10-07T12:06:06.322Z,98.61
2023-10-07T12:08:36.178Z,98.48
2023-10-07T12:11:02.897Z,97.88
2023-10-07T12:13:29.827Z,98.01
2023-10-07T12:16:04.715Z,97.72
2023-10-07T12:18:32.290Z,97.51
2023-10-07T12:21:02.206Z,97.42
2023-10-07T12:23:29.548Z,97.24
2023-10-07T12:25:56.167Z,97.42
2023-10-07T12:28:22.819Z,97.45
2023-10-07T12:30:50.560Z,97.14
2023-10-07T12:33:24.548Z,96.79
2023-10-07T12:35:59.546Z,96.81
2023-10-07T12:38:26.268Z,97.28
2023-10-07T12:40:53.000Z,96.72
2023-10-07T12:43:19.835Z,96.68
2023-10-07T12:45:46.641Z,97.35
2023-10-07T12:48:13.739Z,97.16
2023-10-07T12:50:46.069Z,97.79
2023-10-07T12:53:12.654Z,98.32
2023-10-07T12:55:40.476Z,97.84
2023-10-07T12:58:10.144Z,98.32
2023-10-07T13:00:37.851Z,98.20
2023-10-07T13:03:08.571Z,97.43
2023-10-07T13:05:46.820Z,97.51
2023-10-07T13:08:15.498Z,98.28
2023-10-07T13:10:45.550Z,98.71
2023-10-07T13:13:15.872Z,98.90
2023-10-07T13:15:43.955Z,98.56
2023-10-07T13:18:11.120Z,98.37
2023-10-07T13:20:40.380Z,98.74
2023-10-07T13:23:07.595Z,99.23
2023-10-07T13:25:35.570Z,99.03
2023-10-07T13:28:05.724Z,99.46
2023-10-07T13:30:36.441Z,98.98
2023-10-07T13:33:06.458Z,99.50
2023-10-07T13:35:34.355Z,98.89
2023-10-07T13:38:02.433Z,98.73
2023-10-07T13:40:31.281Z,98.44
2023-10-07T13:42:58.332Z,98.80
2023-10-07T13:45:26.064Z,98.34
2023-10-07T13:47:53.260Z,97.94
2023-10-07T13:50:26.836Z,98.46
2023-10-07T13:53:13.680Z,98.26
2023-10-07T13:55:44.676Z,97.97
2023-10-07T13:58:15.172Z,97.94
2023-10-07T14:00:46.725Z,97.88
2023-10-07T14:03:21.003Z,97.39
2023-10-07T14:06:02.687Z,97.66
2023-10-07T14:08:37.195Z,97.89
2023-10-07T14:11:07.986Z,97.40
2023-10-07T14:13:36.669Z,97.84
2023-10-07T14:16:19.350Z,98.11
2023-10-07T14:18:47.049Z,97.84
2023-10-07T14:21:14.002Z,97.36
2023-10-07T14:23:40.917Z,97.82
2023-10-07T14:26:14.910Z,97.51
2023-10-07T14:28:45.365Z,97.46
2023-10-07T14:31:14.200Z,97.27
2023-10-07T14:33:41.635Z,97.47
2023-10-07T14:36:11.464Z,97.17
2023-10-07T14:38:45.100Z,97.65
2023-10-07T14:41:13.016Z,97.22
2023-10-07T14:43:39.899Z,96.89
2023-10-07T14:46:14.562Z,97.47
2023-10-07T14:48:43.938Z,97.98
2023-10-07T14:51:11.756Z,98.48
2023-10-07T14:53:39.207Z,99.25
2023-10-07T14:56:16.097Z,99.35
2023-10-07T14:58:43.339Z,99.40
2023-10-07T15:01:15.620Z,99.93
2023-10-07T15:03:43.606Z,100.00
2023-10-07T15:06:12.523Z,100.00
2023-10-07T15:08:40.296Z,100.00
2023-10-07T15:11:08.808Z,100.00
2023-10-07T15:13:39.295Z,100.00
2023-10-07T15:16:14.331Z,100.00
2023-10-07T15:18:54.173Z,100.00
2023-10-07T15:21:23.085Z,100.00
2023-10-07T15:23:50.091Z,100.00
2023-10-07T15:26:20.396Z,100.00
2023-10-07T15:28:49.079Z,100.00
2023-10-07T15:31:23.339Z,100.00
2023-10-07T15:34:08.798Z,100.00
2023-10-07T15:36:39.619Z,100.00
2023-10-07T15:39:06.940Z,100.00
2023-10-07T15:41:34.154Z,100.00
2023-10-07T15:44:01.039Z,100.00
2023-10-07T15:46:27.859Z,100.00
2023-10-07T15:49:08.760Z,100.00
2023-10-07T15:51:35.864Z,100.00
2023-10-07T15:54:05.059Z,100.00
2023-10-07T15:56:32.304Z,100.00
2023-10-07T15:58:59.106Z,100.00
2023-10-07T16:01:28.137Z,100.00
2023-10-07T16:03:54.952Z,100.00
2023-10-07T16:06:21.651Z,100.00
2023-10-07T16:08:48.659Z,100.00
2023-10-07T16:11:19.433Z,100.00
2023-10-07T16:13:47.321Z,100.00
2023-10-07T16:16:16.235Z,100.00
2023-10-07T16:18:44.502Z,100.00
2023-10-07T16:21:21.367Z,100.00
2023-10-07T16:23:48.582Z,100.00
2023-10-07T16:26:15.890Z,100.00
2023-10-07T16:28:47.447Z,100.00
2023-10-07T16:31:15.289Z,100.00
2023-10-07T16:33:42.449Z,100.00
2023-10-07T16:36:09.549Z,100.00
2023-10-07T16:38:41.119Z,100.00
2023-10-07T16:41:18.710Z,100.00
2023-10-07T16:43:46.664Z,100.00
2023-10-07T16:46:15.452Z,100.00
2023-10-07T16:48:43.764Z,100.00
2023-10-07T16:51:12.044Z,100.00
2023-10-07T16:53:42.822Z,100.00
2023-10-07T16:56:13.270Z,100.00
2023-10-07T16:58:41.287Z,100.00
2023-10-07T17:01:09.512Z,100.00
2023-10-07T17:03:37.441Z,100.00
2023-10-07T17:06:07.689Z,100.00
2023-10-07T17:08:34.417Z,100.00
2023-10-07T17:11:01.730Z,100.00
2023-10-07T17:13:28.910Z,100.00
2023-10-07T17:15:57.168Z,100.00
2023-10-07T17:18:27.186Z,100.00
2023-10-07T17:20:55.084Z,100.00
2023-10-07T17:23:22.018Z,100.00
2023-10-07T17:25:51.629Z,100.00
2023-10-07T17:28:18.597Z,100.00
2023-10-07T17:30:49.098Z,100.00
2023-10-07T17:33:16.825Z,100.00
2023-10-07T17:35:44.732Z,100.00
2023-10-07T17:38:12.248Z,100.00
2023-10-07T17:40:39.936Z,100.00
2023-10-07T17:43:09.804Z,100.00
2023-10-07T17:45:38.386Z,100.00
2023-10-07T17:48:07.347Z,100.00
2023-10-07T17:50:34.696Z,100.00
2023-10-07T17:53:01.595Z,100.00
2023-10-07T17:55:28.248Z,100.00
2023-10-07T17:57:55.018Z,100.00
2023-10-07T18:00:27.496Z,100.00
2023-10-07T18:02:56.406Z,100.00
2023-10-07T18:05:24.545Z,100.00
2023-10-07T18:07:54.637Z,100.00
2023-10-07T18:10:23.078Z,99.91
2023-10-07T18:12:51.705Z,100.00
2023-10-07T18:15:21.874Z,100.00
2023-10-07T18:17:49.717Z,100.00
2023-10-07T18:20:16.873Z,100.00
2023-10-07T18:22:47.214Z,99.83
2023-10-07T18:25:14.230Z,99.96
2023-10-07T18:27:40.966Z,100.00
2023-10-07T18:30:08.831Z,99.52
2023-10-07T18:32:39.424Z,99.82
2023-10-07T18:35:06.841Z,99.44
2023-10-07T18:37:33.991Z,99.81
2023-10-07T18:40:02.134Z,99.84
2023-10-07T18:42:33.857Z,100.00
2023-10-07T18:45:01.430Z,100.00
2023-10-07T18:47:28.995Z,99.99
2023-10-07T18:49:55.873Z,99.74
2023-10-07T18:52:23.314Z,99.73
2023-10-07T18:54:50.581Z,100.00
2023-10-07T18:57:17.457Z,99.90
2023-10-07T18:59:44.102Z,99.76
2023-10-07T19:02:10.878Z,100.00
2023-10-07T19:04:37.611Z,100.00
2023-10-07T19:07:04.116Z,100.00
2023-10-07T19:09:31.024Z,100.00
2023-10-07T19:11:57.677Z,100.00
2023-10-07T19:14:24.288Z,100.00
2023-10-07T19:16:51.140Z,100.00
2023-10-07T19:19:18.952Z,100.00
2023-10-07T19:21:45.652Z,100.00
2023-10-07T19:24:12.373Z,100.00
2023-10-07T19:26:39.310Z,100.00
2023-10-07T19:29:06.143Z,100.00
2023-10-07T19:31:32.865Z,100.00
2023-10-07T19:33:59.525Z,100.00
2023-10-07T19:36:29.092Z,100.00
2023-10-07T19:38:55.702Z,100.00
2023-10-07T19:41:22.825Z,100.00
2023-10-07T19:43:55.294Z,100.00
2023-10-07T19:46:22.484Z,100.00
2023-10-07T19:48:49.579Z,100.00
2023-10-07T19:51:16.750Z,100.00
2023-10-07T19:53:45.188Z,100.00
2023-10-07T19:56:12.269Z,100.00
2023-10-07T19:58:39.042Z,100.00
2023-10-07T20:01:09.060Z,100.00
2023-10-07T20:03:36.344Z,100.00
2023-10-07T20:06:12.889Z,100.00
2023-10-07T20:08:43.179Z,100.00
2023-10-07T20:11:12.892Z,100.00
2023-10-07T20:13:40.820Z,100.00
2023-10-07T20:16:07.958Z,100.00
2023-10-07T20:18:35.525Z,100.00
2023-10-07T20:21:02.279Z,100.00
2023-10-07T20:23:29.501Z,100.00
2023-10-07T20:26:06.233Z,100.00
2023-10-07T20:28:33.393Z,100.00
2023-10-07T20:31:02.655Z,100.00
2023-10-07T20:33:29.516Z,100.00
2023-10-07T20:35:56.424Z,100.00
2023-10-07T20:38:23.120Z,100.00
2023-10-07T20:40:58.020Z,100.00
2023-10-07T20:43:24.784Z,100.00
2023-10-07T20:45:58.018Z,100.00
2023-10-07T20:48:26.000Z,100.00
2023-10-07T20:51:05.861Z,100.00
2023-10-07T20:53:36.884Z,100.00
2023-10-07T20:56:03.844Z,100.00
2023-10-07T20:58:30.566Z,100.00
2023-10-07T21:00:58.497Z,100.00
2023-10-07T21:03:25.895Z,100.00
2023-10-07T21:05:53.887Z,100.00
2023-10-07T21:08:22.058Z,100.00
2023-10-07T21:10:49.292Z,100.00
2023-10-07T21:13:16.100Z,100.00
2023-10-07T21:15:45.553Z,100.00
2023-10-07T21:18:12.414Z,100.00
2023-10-07T21:20:41.928Z,100.00
2023-10-07T21:23:10.261Z,100.00
2023-10-07T21:25:41.795Z,100.00
2023-10-07T21:28:10.093Z,100.00
2023-10-07T21:30:40.264Z,100.00
2023-10-07T21:33:12.008Z,100.00
2023-10-07T21:35:43.531Z,100.00
2023-10-07T21:38:12.303Z,100.00
2023-10-07T21:40:42.219Z,100.00
2023-10-07T21:43:09.615Z,100.00
2023-10-07T21:45:40.095Z,100.00
2023-10-07T21:48:08.140Z,100.00
2023-10-07T21:50:35.916Z,100.00
2023-10-07T21:53:04.926Z,100.00
2023-10-07T21:55:33.763Z,100.00
2023-10-07T21:58:00.792Z,100.00
2023-10-07T22:00:27.454Z,100.00
2023-10-07T22:03:00.767Z,100.00
2023-10-07T22:05:31.664Z,100.00
2023-10-07T22:07:59.480Z,100.00
2023-10-07T22:10:34.645Z,100.00
2023-10-07T22:13:02.340Z,100.00
2023-10-07T22:15:28.917Z,100.00
2023-10-07T22:17:58.763Z,100.00
2023-10-07T22:20:25.428Z,100.00
2023-10-07T22:22:52.506Z,100.00
2023-10-07T22:25:19.478Z,100.00
2023-10-07T22:27:47.788Z,100.00
2023-10-07T22:30:22.492Z,100.00
2023-10-07T22:32:49.612Z,100.00
2023-10-07T22:35:40.324Z,100.00
2023-10-07T22:38:14.372Z,100.00
2023-10-07T22:40:42.426Z,100.00
2023-10-07T22:43:21.801Z,100.00
2023-10-07T22:45:50.188Z,100.00
2023-10-07T22:48:20.990Z,100.00
2023-10-07T22:50:54.519Z,100.00
2023-10-07T22:53:27.744Z,100.00
2023-10-07T22:56:05.424Z,100.00
2023-10-07T22:58:39.060Z,100.00
2023-10-07T23:01:16.509Z,100.00
2023-10-07T23:03:50.955Z,100.00
2023-10-07T23:06:19.557Z,100.00
2023-10-07T23:08:59.392Z,100.00
2023-10-07T23:11:37.951Z,100.00
2023-10-07T23:14:23.740Z,100.00
2023-10-07T23:16:54.832Z,100.00
2023-10-07T23:19:24.021Z,100.00
2023-10-07T23:21:54.802Z,100.00
2023-10-07T23:24:39.546Z,100.00
2023-10-07T23:27:08.064Z,100.00
2023-10-07T23:29:45.137Z,100.00
2023-10-07T23:32:20.062Z,100.00
2023-10-07T23:34:46.685Z,100.00
2023-10-07T23:37:19.128Z,100.00
2023-10-07T23:39:58.188Z,100.00
2023-10-07T23:42:27.931Z,100.00
2023-10-07T23:44:56.046Z,100.00
2023-10-07T23:47:26.497Z,100.00
2023-10-07T23:49:56.039Z,100.00
2023-10-07T23:52:26.802Z,100.00
2023-10-07T23:55:00.011Z,100.00
2023-10-07T23:57:31.131Z,100.00
